Stations météo

réclame
Mon MeteoGroup
Berlin/Alexanderplatz, Allemagne (10389): Température de l'air & dewpoint: 12.02.2019 17:00:00 - 18.02.2019 17:00:00 (CET)Berlin/Alexanderplatz, Allemagne (10389): Température de l'air -5cm: 12.02.2019 17:00:00 - 18.02.2019 17:00:00 (CET)Berlin/Alexanderplatz, Allemagne (10389): Température de l'air -20cm & Température de l'air -100cm: 12.02.2019 17:00:00 - 18.02.2019 17:00:00 (CET)Berlin/Alexanderplatz, Allemagne (10389): Ensoleillement: 12.02.2019 17:00:00 - 18.02.2019 17:00:00 (CET)Berlin/Alexanderplatz, Allemagne (10389): Quantités de précipitations: 12.02.2019 17:00:00 - 18.02.2019 17:00:00 (CET)
Date & Time tt [°C] td [°C] tt -5cm [°C] tt -20cm [°C] tt -100cm [°C] sd [min] rr [mm]
18.02.2019 17:00:00 - - - - - - -
18.02.2019 16:00:00 - - - - - - -
18.02.2019 15:00:00 - - - - - - -
18.02.2019 14:00:00 - - - - - - -
18.02.2019 13:00:00 - - - - - - -
18.02.2019 12:00:00 - - - - - - -
18.02.2019 11:00:00 - - - - - - -
18.02.2019 10:00:00 - - - - - - -
18.02.2019 09:00:00 - - - - - - -
18.02.2019 08:00:00 - - - - - - -
18.02.2019 07:00:00 - - - - - - -
18.02.2019 06:00:00 - - - - - - -
18.02.2019 05:00:00 - - - - - - -
18.02.2019 04:00:00 - - - - - - -
18.02.2019 03:00:00 - - - - - - -
18.02.2019 02:00:00 - - - - - - -
18.02.2019 01:00:00 5,7 1,0 1,2 4,2 5,0 0 0,0
18.02.2019 00:00:00 6,6 1,3 1,5 4,4 5,0 0 0,0
17.02.2019 23:00:00 7,4 1,5 1,8 4,7 5,0 0 0,0
17.02.2019 22:00:00 7,7 1,7 2,2 4,7 5,0 0 0,0
17.02.2019 21:00:00 8,5 1,9 2,8 5,0 5,0 0 0,0
17.02.2019 20:00:00 9,4 2,0 3,7 5,2 5,0 0 0,0
17.02.2019 19:00:00 10,2 1,6 4,8 5,4 5,0 0 0,0
17.02.2019 18:00:00 11,4 1,3 6,2 5,5 5,0 0 0,0
17.02.2019 17:00:00 12,6 1,6 8,2 5,4 5,0 19 0,0
17.02.2019 16:00:00 13,3 1,3 10,5 5,0 5,0 53 0,0
17.02.2019 15:00:00 13,7 1,3 12,7 4,4 5,0 60 0,0
17.02.2019 14:00:00 13,7 1,0 12,5 3,7 5,0 60 0,0
17.02.2019 13:00:00 13,0 1,6 10,5 3,0 5,0 60 0,0
17.02.2019 12:00:00 11,1 1,1 6,8 2,7 5,0 60 0,0
17.02.2019 11:00:00 9,5 1,2 0,7 2,7 5,0 28 0,0
17.02.2019 10:00:00 6,4 -0,1 0,4 2,9 5,0 24 0,0
17.02.2019 09:00:00 4,5 -0,5 0,4 3,0 5,0 11 0,0
17.02.2019 08:00:00 3,2 -0,4 0,5 3,0 5,0 0 0,0
17.02.2019 07:00:00 3,6 -0,4 0,5 3,2 5,0 0 0,0
17.02.2019 06:00:00 3,8 -0,6 0,6 3,3 5,1 0 0,0
17.02.2019 05:00:00 4,0 -0,8 0,6 3,4 5,1 0 0,0
17.02.2019 04:00:00 4,7 -0,5 0,7 3,5 5,1 0 0,0
17.02.2019 03:00:00 4,9 -0,3 0,7 3,7 5,1 0 0,0
17.02.2019 02:00:00 5,4 0,0 0,7 3,9 5,1 0 0,0
17.02.2019 01:00:00 6,7 0,2 0,9 4,1 5,1 0 0,0
17.02.2019 00:00:00 7,9 -0,1 1,4 4,3 5,1 0 0,0
16.02.2019 23:00:00 9,1 -0,2 2,1 4,5 5,1 0 0,0
16.02.2019 22:00:00 10,9 -0,6 2,5 4,7 5,1 0 0,0
16.02.2019 21:00:00 10,7 -0,5 2,7 4,9 5,1 0 0,0
16.02.2019 20:00:00 10,7 -0,8 3,5 5,2 5,1 0 0,0
16.02.2019 19:00:00 11,8 -0,7 4,5 5,3 5,1 0 0,0
16.02.2019 18:00:00 12,6 -0,6 5,9 5,4 5,1 0 0,0
16.02.2019 17:00:00 14,3 -0,6 7,9 5,3 5,1 38 0,0
16.02.2019 16:00:00 16,4 -2,7 10,2 4,9 5,1 56 0,0
16.02.2019 15:00:00 16,4 -3,2 13,4 4,3 5,1 60 0,0
16.02.2019 14:00:00 16,3 -1,8 13,1 3,5 5,1 60 0,0
16.02.2019 13:00:00 14,7 -1,0 10,7 2,9 5,1 60 0,0
16.02.2019 12:00:00 12,1 -1,4 5,4 2,7 5,1 60 0,0
16.02.2019 11:00:00 10,5 -1,6 0,3 2,8 5,1 39 0,0
16.02.2019 10:00:00 7,3 -1,4 0,3 2,8 5,1 33 0,0
16.02.2019 09:00:00 4,7 -1,3 0,3 2,9 5,1 36 0,0
16.02.2019 08:00:00 2,7 -1,3 0,4 3,0 5,1 0 0,0
16.02.2019 07:00:00 2,8 -1,2 0,4 3,1 5,1 0 0,0
16.02.2019 06:00:00 3,2 -0,8 0,5 3,2 5,0 0 0,0
16.02.2019 05:00:00 3,7 -0,7 0,5 3,3 5,0 0 0,0
16.02.2019 04:00:00 4,0 -0,4 0,6 3,4 5,0 0 0,0
16.02.2019 03:00:00 5,2 0,2 0,6 3,6 5,0 0 0,0
16.02.2019 02:00:00 6,2 0,1 0,5 3,8 5,0 0 0,0
16.02.2019 01:00:00 6,3 0,2 0,4 4,0 5,0 0 0,0
16.02.2019 00:00:00 7,0 0,2 0,7 4,2 5,0 0 0,0
15.02.2019 23:00:00 7,5 -0,5 1,1 4,4 5,0 0 0,0
15.02.2019 22:00:00 8,4 -0,6 1,6 4,7 5,0 0 0,0
15.02.2019 21:00:00 8,8 -0,8 2,3 4,9 5,0 0 0,0
15.02.2019 20:00:00 9,8 -1,3 3,1 5,2 5,0 0 0,0
15.02.2019 19:00:00 10,1 -0,7 4,1 5,4 5,0 0 0,0
15.02.2019 18:00:00 11,3 -0,8 5,6 5,4 5,0 0 0,0
15.02.2019 17:00:00 13,1 -5,5 7,5 5,4 5,0 33 0,0
15.02.2019 16:00:00 13,9 -3,4 9,8 5,0 5,0 56 0,0
15.02.2019 15:00:00 14,3 -3,5 12,2 4,4 5,0 60 0,0
15.02.2019 14:00:00 13,0 -3,7 12,1 3,7 5,0 60 0,0
15.02.2019 13:00:00 12,2 -2,4 10,4 3,2 5,0 60 0,0
15.02.2019 12:00:00 10,6 -0,8 5,5 3,0 5,0 60 0,0
15.02.2019 11:00:00 8,3 -1,2 0,4 3,0 4,9 37 0,0
15.02.2019 10:00:00 6,1 -1,3 0,4 3,0 4,9 32 0,0
15.02.2019 09:00:00 4,4 -1,0 0,4 3,2 4,9 37 0,0
15.02.2019 08:00:00 2,9 -0,7 0,4 3,2 4,9 0 0,0
15.02.2019 07:00:00 2,7 -1,3 0,5 3,4 4,9 0 0,0
15.02.2019 06:00:00 3,4 -1,2 0,5 3,7 4,9 0 0,0
15.02.2019 05:00:00 4,1 -1,1 0,6 3,7 4,9 0 0,0
15.02.2019 04:00:00 4,3 -0,9 0,6 3,9 4,9 0 0,0
15.02.2019 03:00:00 4,1 -0,7 0,6 4,0 4,9 0 0,0
15.02.2019 02:00:00 5,1 -0,5 0,4 4,4 4,7 0 0,0
15.02.2019 01:00:00 5,8 -0,1 0,7 4,7 4,7 0 0,0
15.02.2019 00:00:00 5,9 0,2 1,3 4,9 4,7 0 0,0
14.02.2019 23:00:00 6,3 0,6 1,7 5,0 4,7 0 0,0
14.02.2019 22:00:00 7,6 0,8 2,6 5,4 4,7 0 0,0
14.02.2019 21:00:00 8,2 1,4 3,0 5,7 4,7 0 0,0
14.02.2019 20:00:00 9,1 1,7 3,6 5,9 4,7 0 0,0
14.02.2019 19:00:00 8,9 2,0 4,5 6,2 4,7 0 0,0
14.02.2019 18:00:00 9,4 2,0 5,8 6,4 4,7 0 0,0
14.02.2019 17:00:00 10,4 2,2 7,4 6,4 4,7 27 0,0
14.02.2019 16:00:00 10,6 1,9 9,3 6,2 4,7 53 0,0
14.02.2019 15:00:00 10,5 2,1 12,2 5,9 4,7 60 0,0
14.02.2019 14:00:00 10,2 2,5 11,9 5,7 4,7 56 0,0
14.02.2019 13:00:00 9,6 2,7 10,1 5,2 4,7 31 0,0
14.02.2019 12:00:00 8,9 3,3 8,7 5,0 4,7 1 0,0
14.02.2019 11:00:00 8,0 3,5 7,5 4,9 4,7 0 0,0
14.02.2019 10:00:00 7,5 3,7 6,2 4,7 4,7 0 0,0
14.02.2019 09:00:00 7,2 3,6 5,4 4,7 4,7 0 0,0
14.02.2019 08:00:00 7,1 3,7 5,1 4,7 4,7 0 0,0
14.02.2019 07:00:00 7,0 3,8 5,2 4,7 4,7 0 0,0
14.02.2019 06:00:00 6,9 4,0 5,2 4,7 4,7 0 0,0
14.02.2019 05:00:00 6,9 4,4 5,5 4,7 4,7 0 0,0
14.02.2019 04:00:00 7,0 4,7 5,7 4,7 4,7 0 0,0
14.02.2019 03:00:00 6,9 5,2 5,8 4,7 4,7 0 0,0
14.02.2019 02:00:00 7,0 5,5 5,8 4,7 4,7 0 0,0
14.02.2019 01:00:00 7,0 5,6 5,8 4,7 4,7 0 0,1
14.02.2019 00:00:00 7,3 5,4 5,9 4,7 4,7 0 0,0
13.02.2019 23:00:00 7,4 5,5 5,9 4,7 4,7 0 0,0
13.02.2019 22:00:00 7,2 5,7 5,9 4,7 4,7 0 0,0
13.02.2019 21:00:00 7,4 5,9 6,0 4,7 4,7 0 0,0
13.02.2019 20:00:00 7,5 6,0 6,0 4,7 4,7 0 0,0
13.02.2019 19:00:00 7,5 6,0 6,1 4,5 4,7 0 0,0
13.02.2019 18:00:00 7,6 6,2 6,2 4,4 4,7 0 0,0
13.02.2019 17:00:00 7,9 5,4 6,4 4,2 4,7 0 0,0
13.02.2019 16:00:00 8,6 5,2 6,6 4,2 4,7 0 0,0
13.02.2019 15:00:00 8,3 5,1 6,7 4,0 4,7 0 0,0
13.02.2019 14:00:00 8,0 4,9 6,6 3,7 4,7 0 0,0
13.02.2019 13:00:00 7,8 4,9 6,6 3,6 4,7 0 0,0
13.02.2019 12:00:00 7,7 4,6 6,2 3,2 4,7 0 0,0
13.02.2019 11:00:00 6,6 4,1 5,1 3,2 4,7 0 0,0
13.02.2019 10:00:00 6,3 3,6 4,5 3,0 4,7 0 0,0
13.02.2019 09:00:00 6,0 3,2 3,9 3,0 4,7 0 0,0
13.02.2019 08:00:00 5,5 2,8 3,4 2,9 4,7 0 0,0
13.02.2019 07:00:00 5,2 2,4 3,2 2,7 4,7 0 0,0
13.02.2019 06:00:00 5,3 1,8 3,0 2,7 4,7 0 0,0
13.02.2019 05:00:00 5,1 1,4 2,8 2,7 4,7 0 0,0
13.02.2019 04:00:00 5,0 1,3 2,5 2,7 4,7 0 0,0
13.02.2019 03:00:00 4,8 1,5 2,2 2,5 4,7 0 0,0
13.02.2019 02:00:00 4,4 1,6 2,0 2,4 4,7 0 0,2
13.02.2019 01:00:00 4,3 1,0 1,5 2,4 4,7 0 0,0
13.02.2019 00:00:00 4,1 -0,3 0,9 2,5 4,7 0 0,0
12.02.2019 23:00:00 3,8 -1,4 0,4 2,5 4,7 0 0,0
12.02.2019 22:00:00 4,0 -2,2 0,1 2,7 4,7 0 0,0
12.02.2019 21:00:00 3,8 -3,3 0,2 2,7 4,7 0 0,0
12.02.2019 20:00:00 4,2 -3,3 0,1 3,0 4,7 0 0,0
12.02.2019 19:00:00 4,3 -3,9 0,5 3,2 4,7 0 0,0
12.02.2019 18:00:00 4,7 -3,8 1,1 3,4 4,7 0 0,0
12.02.2019 17:00:00 5,2 -3,9 2,1 3,5 4,7 26 0,0

tt = Température de l'air
td = dewpoint
tt -5cm = Température de l'air -5cm
tt -20cm = Température de l'air -20cm
tt -100cm = Température de l'air -100cm
sd = Ensoleillement
rr = Quantités de précipitations

stations d'obs. à proximité